Time;durP1;ratioP1;P1;durP2;ratioP2;P2;SDS_P1;SDS_P2;PMS_P1;PMS_P2;Temp;Humidity;BMP_temperature;BMP_pressure;BME280_temperature;BME280_humidity;BME280_pressure;Samples;Min_cycle;Max_cycle;Signal;HPM_P1;HPM_P2
2022/09/29 00:00:40;;;;;;;;;;;;;;;;;;4982051;28;20202;-77
2022/09/29 00:03:06;;;;;;;;;;;;;;;;;;4981851;28;19933;-77
2022/09/29 00:05:31;;;;;;;;;;;;;;;;;;4980422;28;19922;-77
2022/09/29 00:07:57;;;;;;;;;;;;;;;;;;4981899;28;19910;-77
2022/09/29 00:10:22;;;;;;;;;;;;;;;;;;4980743;28;19926;-77
2022/09/29 00:12:48;;;;;;;;;;;;;;;;;;4980810;28;19922;-76
2022/09/29 00:15:13;;;;;;;;;;;;;;;;;;4981138;28;19922;-77
2022/09/29 00:17:38;;;;;;;;;;;;;;;;;;4980360;28;19957;-77
2022/09/29 00:20:04;;;;;;;;;;;;;;;;;;4980152;28;19945;-76
2022/09/29 00:22:29;;;;;;;;;;;;;;;;;;4981228;28;19937;-77
2022/09/29 00:24:55;;;;;;;;;;;;;;;;;;4980960;28;20037;-77
2022/09/29 00:27:20;;;;;;;;;;;;;;;;;;4981462;28;19917;-76
2022/09/29 00:29:48;;;;;;;;;;;;;;;;;;4980285;28;19914;-77
2022/09/29 00:32:13;;;;;;;;;;;;;;;;;;4981428;28;19916;-78
2022/09/29 00:34:39;;;;;;;;;;;;;;;;;;4980628;28;19954;-77
2022/09/29 00:37:04;;;;;;;;;;;;;;;;;;4977796;28;19916;-77
2022/09/29 00:39:29;;;;;;;;;;;;;;;;;;4980421;28;19945;-77
2022/09/29 00:41:56;;;;;;;;;;;;;;;;;;4981471;28;19910;-78
2022/09/29 00:44:21;;;;;;;;;;;;;;;;;;4981708;28;19910;-78
2022/09/29 00:46:59;;;;;;;;;;;;;;;;;;4981529;28;20157;-78
2022/09/29 00:49:39;;;;;;;;;;;;;;;;;;4980093;28;19968;-77
2022/09/29 00:52:11;;;;;;;;;;;;;;;;;;4977178;28;19910;-78
2022/09/29 00:54:42;;;;;;;;;;;;;;;;;;4982034;28;19914;-78
2022/09/29 00:57:07;;;;;;;;;;;;;;;;;;4984325;28;19914;-78
2022/09/29 00:59:45;;;;;;;;;;;;;;;;;;4984989;28;20107;-77
2022/09/29 01:02:10;;;;;;;;;;;;;;;;;;4984798;28;20220;-77
2022/09/29 01:04:36;;;;;;;;;;;;;;;;;;4976676;28;19941;-78
2022/09/29 01:07:01;;;;;;;;;;;;;;;;;;4984568;28;20197;-77
2022/09/29 01:09:29;;;;;;;;;;;;;;;;;;4984840;28;19922;-77
2022/09/29 01:11:57;;;;;;;;;;;;;;;;;;4984793;28;19957;-77
2022/09/29 01:14:24;;;;;;;;;;;;;;;;;;4984615;28;19918;-77
2022/09/29 01:16:49;;;;;;;;;;;;;;;;;;4984874;28;19928;-77
2022/09/29 01:19:16;;;;;;;;;;;;;;;;;;4984140;28;19953;-77
2022/09/29 01:21:50;;;;;;;;;;;;;;;;;;4984493;28;19917;-77
2022/09/29 01:24:29;;;;;;;;;;;;;;;;;;4984776;28;19922;-77
2022/09/29 01:27:14;;;;;;;;;;;;;;;;;;4983084;28;19910;-77
2022/09/29 01:29:41;;;;;;;;;;;;;;;;;;4982305;28;19953;-78
2022/09/29 01:32:45;;;;;;;;;;;;;;;;;;4978324;28;19910;-77
2022/09/29 01:35:29;;;;;;;;;;;;;;;;;;4922000;29;19949;-77
2022/09/29 01:37:57;;;;;;;;;;;;;;;;;;4924623;29;19915;-78
2022/09/29 01:40:40;;;;;;;;;;;;;;;;;;4949046;28;20117;-78
2022/09/29 01:43:08;;;;;;;;;;;;;;;;;;4975513;28;19961;-78
2022/09/29 01:45:35;;;;;;;;;;;;;;;;;;4970005;28;20029;-77
2022/09/29 01:48:16;;;;;;;;;;;;;;;;;;4971753;28;20223;-77
2022/09/29 01:50:44;;;;;;;;;;;;;;;;;;4971246;28;20248;-78
2022/09/29 01:53:21;;;;;;;;;;;;;;;;;;4973338;28;19922;-78
2022/09/29 01:55:49;;;;;;;;;;;;;;;;;;4970432;28;20194;-78
2022/09/29 01:58:17;;;;;;;;;;;;;;;;;;4969251;28;19917;-80
2022/09/29 02:00:45;;;;;;;;;;;;;;;;;;4971951;28;19942;-79
2022/09/29 02:03:26;;;;;;;;;;;;;;;;;;4970805;28;19922;-78
2022/09/29 02:06:00;;;;;;;;;;;;;;;;;;4969694;28;20210;-77
2022/09/29 02:08:25;;;;;;;;;;;;;;;;;;4969400;28;19910;-77
2022/09/29 02:11:05;;;;;;;;;;;;;;;;;;4970429;28;19942;-78
2022/09/29 02:13:31;;;;;;;;;;;;;;;;;;4969440;28;19918;-78
2022/09/29 02:15:57;;;;;;;;;;;;;;;;;;4970991;28;20048;-78
2022/09/29 02:18:25;;;;;;;;;;;;;;;;;;4967726;28;19941;-77
2022/09/29 02:20:51;;;;;;;;;;;;;;;;;;4970517;28;20262;-78
2022/09/29 02:23:17;;;;;;;;;;;;;;;;;;4968951;28;19914;-77
2022/09/29 02:25:43;;;;;;;;;;;;;;;;;;4971614;28;19910;-78
2022/09/29 02:28:08;;;;;;;;;;;;;;;;;;4974218;28;19926;-78
2022/09/29 02:30:34;;;;;;;;;;;;;;;;;;4968812;28;20312;-78
2022/09/29 02:32:59;;;;;;;;;;;;;;;;;;4967620;28;19941;-77
2022/09/29 02:35:28;;;;;;;;;;;;;;;;;;4970000;28;19941;-78
2022/09/29 02:38:00;;;;;;;;;;;;;;;;;;4969978;28;19910;-78
2022/09/29 02:40:29;;;;;;;;;;;;;;;;;;4970606;28;19922;-77
2022/09/29 02:43:06;;;;;;;;;;;;;;;;;;4970717;28;19910;-78
2022/09/29 02:45:36;;;;;;;;;;;;;;;;;;4966259;28;19948;-78
2022/09/29 02:48:01;;;;;;;;;;;;;;;;;;4969294;28;19909;-77
2022/09/29 02:50:26;;;;;;;;;;;;;;;;;;4970268;28;19921;-78
2022/09/29 02:52:51;;;;;;;;;;;;;;;;;;4970890;28;19910;-78
2022/09/29 02:55:25;;;;;;;;;;;;;;;;;;4968702;28;19949;-77
2022/09/29 02:58:06;;;;;;;;;;;;;;;;;;4969580;28;19940;-78
2022/09/29 03:00:31;;;;;;;;;;;;;;;;;;4968626;28;19922;-78
2022/09/29 03:02:57;;;;;;;;;;;;;;;;;;4973415;28;19961;-77
2022/09/29 03:05:22;;;;;;;;;;;;;;;;;;4969021;28;20042;-77
2022/09/29 03:07:48;;;;;;;;;;;;;;;;;;4968073;28;19910;-77
2022/09/29 03:10:14;;;;;;;;;;;;;;;;;;4971996;28;19913;-77
2022/09/29 03:12:39;;;;;;;;;;;;;;;;;;4969540;28;19909;-77
2022/09/29 03:15:06;;;;;;;;;;;;;;;;;;4967571;28;20232;-77
2022/09/29 03:17:31;;;;;;;;;;;;;;;;;;4967881;28;19921;-77
2022/09/29 03:19:56;;;;;;;;;;;;;;;;;;4969085;28;19933;-77
2022/09/29 03:22:22;;;;;;;;;;;;;;;;;;4968526;28;19911;-78
2022/09/29 03:24:47;;;;;;;;;;;;;;;;;;4970690;28;20381;-77
2022/09/29 03:27:13;;;;;;;;;;;;;;;;;;4967797;28;19961;-78
2022/09/29 03:29:38;;;;;;;;;;;;;;;;;;4968974;28;20282;-77
2022/09/29 03:32:04;;;;;;;;;;;;;;;;;;4967012;28;19919;-79
2022/09/29 03:34:30;;;;;;;;;;;;;;;;;;4968952;28;20198;-79
2022/09/29 03:36:56;;;;;;;;;;;;;;;;;;4967795;28;19950;-78
2022/09/29 03:39:22;;;;;;;;;;;;;;;;;;4972224;28;19989;-79
2022/09/29 03:41:47;;;;;;;;;;;;;;;;;;4965001;28;19917;-79
2022/09/29 03:44:13;;;;;;;;;;;;;;;;;;4978809;28;19997;-79
2022/09/29 03:46:38;;;;;;;;;;;;;;;;;;4980678;28;19952;-79
2022/09/29 03:49:03;;;;;;;;;;;;;;;;;;4981833;28;19949;-78
2022/09/29 03:51:28;;;;;;;;;;;;;;;;;;4982013;28;19906;-79
2022/09/29 03:53:54;;;;;;;;;;;;;;;;;;4982267;28;20198;-78
2022/09/29 03:56:19;;;;;;;;;;;;;;;;;;4982383;28;20241;-78
2022/09/29 03:58:44;;;;;;;;;;;;;;;;;;4981943;28;20255;-78
2022/09/29 04:01:09;;;;;;;;;;;;;;;;;;4982160;28;19910;-77
2022/09/29 04:03:35;;;;;;;;;;;;;;;;;;4982279;28;19914;-78
2022/09/29 04:06:00;;;;;;;;;;;;;;;;;;4981991;28;19917;-79
2022/09/29 04:08:25;;;;;;;;;;;;;;;;;;4982109;28;19922;-79
2022/09/29 04:10:50;;;;;;;;;;;;;;;;;;4981737;28;19914;-78
2022/09/29 04:13:16;;;;;;;;;;;;;;;;;;4982129;28;19922;-77
2022/09/29 04:15:41;;;;;;;;;;;;;;;;;;4982053;28;19910;-78
2022/09/29 04:18:06;;;;;;;;;;;;;;;;;;4981942;28;19932;-77
2022/09/29 04:20:32;;;;;;;;;;;;;;;;;;4981567;28;19949;-78
2022/09/29 04:22:57;;;;;;;;;;;;;;;;;;4982406;28;19913;-78
2022/09/29 04:25:22;;;;;;;;;;;;;;;;;;4981980;28;20009;-78
2022/09/29 04:27:48;;;;;;;;;;;;;;;;;;4981856;28;19910;-78
2022/09/29 04:30:13;;;;;;;;;;;;;;;;;;4985149;28;19906;-78
2022/09/29 04:32:38;;;;;;;;;;;;;;;;;;4985894;28;19949;-77
2022/09/29 04:35:04;;;;;;;;;;;;;;;;;;4983536;28;19914;-78
2022/09/29 04:37:30;;;;;;;;;;;;;;;;;;4985441;28;19969;-77
2022/09/29 04:39:55;;;;;;;;;;;;;;;;;;4985312;28;19932;-77
2022/09/29 04:42:21;;;;;;;;;;;;;;;;;;4985535;28;20048;-78
2022/09/29 04:44:46;;;;;;;;;;;;;;;;;;4980895;28;20221;-78
2022/09/29 04:47:11;;;;;;;;;;;;;;;;;;4983414;28;20202;-78
2022/09/29 04:49:37;;;;;;;;;;;;;;;;;;4984737;28;20248;-78
2022/09/29 04:52:02;;;;;;;;;;;;;;;;;;4985497;28;20294;-77
2022/09/29 04:54:31;;;;;;;;;;;;;;;;;;4983919;28;20203;-78
2022/09/29 04:56:56;;;;;;;;;;;;;;;;;;4985136;28;19936;-78
2022/09/29 04:59:22;;;;;;;;;;;;;;;;;;4984898;28;20198;-78
2022/09/29 05:01:48;;;;;;;;;;;;;;;;;;4985093;28;19984;-78
2022/09/29 05:04:13;;;;;;;;;;;;;;;;;;4985102;28;19949;-78
2022/09/29 05:06:38;;;;;;;;;;;;;;;;;;4984849;28;20083;-79
2022/09/29 05:09:04;;;;;;;;;;;;;;;;;;4984026;28;19913;-77
2022/09/29 05:11:29;;;;;;;;;;;;;;;;;;4984507;28;20225;-78
2022/09/29 05:13:55;;;;;;;;;;;;;;;;;;4984659;28;19910;-79
2022/09/29 05:16:20;;;;;;;;;;;;;;;;;;4984945;28;19910;-78
2022/09/29 05:18:45;;;;;;;;;;;;;;;;;;4984402;28;19925;-78
2022/09/29 05:21:10;;;;;;;;;;;;;;;;;;4984709;28;20075;-78
2022/09/29 05:23:36;;;;;;;;;;;;;;;;;;4984490;28;19914;-79
2022/09/29 05:26:02;;;;;;;;;;;;;;;;;;4978576;28;19917;-78
2022/09/29 05:28:27;;;;;;;;;;;;;;;;;;4984456;28;19914;-80
2022/09/29 05:30:52;;;;;;;;;;;;;;;;;;4984438;28;19974;-79
2022/09/29 05:33:17;;;;;;;;;;;;;;;;;;4984643;28;19910;-78
2022/09/29 05:35:43;;;;;;;;;;;;;;;;;;4983989;28;19914;-78
2022/09/29 05:38:08;;;;;;;;;;;;;;;;;;4982683;28;19933;-80
2022/09/29 05:40:34;;;;;;;;;;;;;;;;;;4972810;28;19910;-80
2022/09/29 05:42:59;;;;;;;;;;;;;;;;;;4981996;28;19917;-79
2022/09/29 05:45:25;;;;;;;;;;;;;;;;;;4983909;28;19952;-79
2022/09/29 05:47:53;;;;;;;;;;;;;;;;;;4983875;28;19956;-77
2022/09/29 05:50:19;;;;;;;;;;;;;;;;;;4983182;28;19920;-77
2022/09/29 05:52:48;;;;;;;;;;;;;;;;;;4983602;28;19922;-79
2022/09/29 05:55:13;;;;;;;;;;;;;;;;;;4976560;28;19913;-77
2022/09/29 05:57:38;;;;;;;;;;;;;;;;;;4983929;28;20103;-78
2022/09/29 06:00:05;;;;;;;;;;;;;;;;;;4982389;28;19917;-78
2022/09/29 06:02:31;;;;;;;;;;;;;;;;;;4983153;28;19917;-80
2022/09/29 06:04:56;;;;;;;;;;;;;;;;;;4982973;28;20006;-78
2022/09/29 06:07:21;;;;;;;;;;;;;;;;;;4983363;28;19912;-77
2022/09/29 06:09:46;;;;;;;;;;;;;;;;;;4982044;28;19914;-78
2022/09/29 06:12:12;;;;;;;;;;;;;;;;;;4983286;28;19910;-78
2022/09/29 06:14:37;;;;;;;;;;;;;;;;;;4983576;28;19953;-80
2022/09/29 06:17:02;;;;;;;;;;;;;;;;;;4984016;28;19914;-80
2022/09/29 06:19:27;;;;;;;;;;;;;;;;;;4983055;28;19933;-81
2022/09/29 06:21:53;;;;;;;;;;;;;;;;;;4983526;28;19972;-80
2022/09/29 06:24:18;;;;;;;;;;;;;;;;;;4978492;28;19914;-80
2022/09/29 06:26:43;;;;;;;;;;;;;;;;;;4983336;28;19906;-78
2022/09/29 06:29:08;;;;;;;;;;;;;;;;;;4983222;28;19910;-76
2022/09/29 06:31:34;;;;;;;;;;;;;;;;;;4981868;28;19972;-79
2022/09/29 06:34:00;;;;;;;;;;;;;;;;;;4983181;28;19956;-79
2022/09/29 06:39:10;;;;;;;;;;;;;;;;;;4983190;28;20137;-79
2022/09/29 06:41:35;;;;;;;;;;;;;;;;;;4983291;28;20220;-78
2022/09/29 06:44:01;;;;;;;;;;;;;;;;;;4982683;28;19906;-78
2022/09/29 06:46:26;;;;;;;;;;;;;;;;;;4982885;28;20005;-79
2022/09/29 06:48:52;;;;;;;;;;;;;;;;;;4982446;28;19910;-80
2022/09/29 06:51:18;;;;;;;;;;;;;;;;;;4982789;28;19972;-83
2022/09/29 06:53:44;;;;;;;;;;;;;;;;;;4982299;28;19957;-83
2022/09/29 06:56:09;;;;;;;;;;;;;;;;;;4982968;28;19941;-78
2022/09/29 06:58:35;;;;;;;;;;;;;;;;;;4982724;28;19910;-79
2022/09/29 07:01:01;;;;;;;;;;;;;;;;;;4980067;28;19921;-79
2022/09/29 07:03:27;;;;;;;;;;;;;;;;;;4974621;28;19921;-78
2022/09/29 07:05:52;;;;;;;;;;;;;;;;;;4980049;28;19935;-79
2022/09/29 07:08:17;;;;;;;;;;;;;;;;;;4979360;28;20130;-79
2022/09/29 07:10:44;;;;;;;;;;;;;;;;;;4978674;28;19921;-79
2022/09/29 07:13:10;;;;;;;;;;;;;;;;;;4982606;28;19913;-79
2022/09/29 07:15:36;;;;;;;;;;;;;;;;;;4974658;28;19944;-79
2022/09/29 07:18:02;;;;;;;;;;;;;;;;;;4980827;28;19946;-79
2022/09/29 07:20:28;;;;;;;;;;;;;;;;;;4978438;28;19910;-79
2022/09/29 07:22:54;;;;;;;;;;;;;;;;;;4982458;28;19918;-79
2022/09/29 07:25:19;;;;;;;;;;;;;;;;;;4982296;28;19910;-79
2022/09/29 07:27:45;;;;;;;;;;;;;;;;;;4981652;28;20174;-79
2022/09/29 07:30:10;;;;;;;;;;;;;;;;;;4982803;28;19922;-79
2022/09/29 07:32:35;;;;;;;;;;;;;;;;;;4978475;28;20165;-79
2022/09/29 07:35:01;;;;;;;;;;;;;;;;;;4982034;28;19910;-79
2022/09/29 07:37:26;;;;;;;;;;;;;;;;;;4982212;28;19956;-79
2022/09/29 07:39:52;;;;;;;;;;;;;;;;;;4981959;28;20174;-79
2022/09/29 07:42:18;;;;;;;;;;;;;;;;;;4982193;28;19997;-78
2022/09/29 07:44:43;;;;;;;;;;;;;;;;;;4979531;28;19918;-79
2022/09/29 07:47:09;;;;;;;;;;;;;;;;;;4977004;28;19922;-79
2022/09/29 07:49:34;;;;;;;;;;;;;;;;;;4980306;28;19917;-79
2022/09/29 07:51:59;;;;;;;;;;;;;;;;;;4982076;28;20225;-79
2022/09/29 07:54:25;;;;;;;;;;;;;;;;;;4981951;28;19910;-79
2022/09/29 07:56:50;;;;;;;;;;;;;;;;;;4981979;28;20083;-79
2022/09/29 07:59:15;;;;;;;;;;;;;;;;;;4980655;28;19910;-79
2022/09/29 08:01:40;;;;;;;;;;;;;;;;;;4981732;28;20194;-78
2022/09/29 08:04:05;;;;;;;;;;;;;;;;;;4983369;28;20018;-78
2022/09/29 08:06:32;;;;;;;;;;;;;;;;;;4985577;28;20158;-78
2022/09/29 08:08:58;;;;;;;;;;;;;;;;;;4983077;28;20146;-78
2022/09/29 08:11:23;;;;;;;;;;;;;;;;;;4980693;28;19933;-79
2022/09/29 08:13:52;;;;;;;;;;;;;;;;;;4985499;28;20201;-79
2022/09/29 08:16:17;;;;;;;;;;;;;;;;;;4985728;28;19910;-79
2022/09/29 08:18:43;;;;;;;;;;;;;;;;;;4985346;28;19913;-79
2022/09/29 08:21:09;;;;;;;;;;;;;;;;;;4985165;28;19909;-79
2022/09/29 08:23:39;;;;;;;;;;;;;;;;;;4985414;28;19917;-78
2022/09/29 08:26:06;;;;;;;;;;;;;;;;;;4985031;28;19910;-79
2022/09/29 08:28:32;;;;;;;;;;;;;;;;;;4985046;28;20186;-79
2022/09/29 08:31:20;;;;;;;;;;;;;;;;;;4985145;28;19922;-79
2022/09/29 08:33:46;;;;;;;;;;;;;;;;;;4981810;28;19964;-79
2022/09/29 08:36:14;;;;;;;;;;;;;;;;;;4984739;28;20016;-79
2022/09/29 08:38:41;;;;;;;;;;;;;;;;;;4985037;28;19922;-80
2022/09/29 08:41:14;;;;;;;;;;;;;;;;;;4984798;28;19922;-79
2022/09/29 08:43:41;;;;;;;;;;;;;;;;;;4985140;28;19988;-79
2022/09/29 08:46:09;;;;;;;;;;;;;;;;;;4984905;28;20105;-79
2022/09/29 08:48:38;;;;;;;;;;;;;;;;;;4981982;28;19911;-79
2022/09/29 08:51:05;;;;;;;;;;;;;;;;;;4982094;28;20250;-79
2022/09/29 08:53:32;;;;;;;;;;;;;;;;;;4985268;28;19918;-79
2022/09/29 08:56:00;;;;;;;;;;;;;;;;;;4984558;28;19941;-79
2022/09/29 08:58:25;;;;;;;;;;;;;;;;;;4984597;28;19922;-79
2022/09/29 09:00:56;;;;;;;;;;;;;;;;;;4978955;28;19988;-79
2022/09/29 09:03:39;;;;;;;;;;;;;;;;;;4984054;28;19945;-79
2022/09/29 09:06:07;;;;;;;;;;;;;;;;;;4984550;28;20082;-80
2022/09/29 09:08:51;;;;;;;;;;;;;;;;;;4981589;28;19975;-79
2022/09/29 09:11:26;;;;;;;;;;;;;;;;;;4978261;28;20134;-79
2022/09/29 09:13:57;;;;;;;;;;;;;;;;;;4984855;28;19910;-79
2022/09/29 09:16:27;;;;;;;;;;;;;;;;;;4983338;28;19910;-80
2022/09/29 09:19:00;;;;;;;;;;;;;;;;;;4984664;28;19910;-79
2022/09/29 09:21:25;;;;;;;;;;;;;;;;;;4983973;28;19914;-80
2022/09/29 09:24:03;;;;;;;;;;;;;;;;;;4983093;28;19946;-79
2022/09/29 09:26:28;;;;;;;;;;;;;;;;;;4982097;28;19949;-80
2022/09/29 09:29:00;;;;;;;;;;;;;;;;;;4982374;28;19910;-78
2022/09/29 09:31:29;;;;;;;;;;;;;;;;;;4984072;28;19925;-80
2022/09/29 09:34:11;;;;;;;;;;;;;;;;;;4984014;28;20027;-80
2022/09/29 09:36:40;;;;;;;;;;;;;;;;;;4984246;28;19913;-79
2022/09/29 09:39:10;;;;;;;;;;;;;;;;;;4984108;28;19910;-79
2022/09/29 09:41:37;;;;;;;;;;;;;;;;;;4983698;28;19910;-79
2022/09/29 09:44:28;;;;;;;;;;;;;;;;;;4983622;28;20178;-79
2022/09/29 09:46:57;;;;;;;;;;;;;;;;;;4979251;28;19933;-79
2022/09/29 09:49:25;;;;;;;;;;;;;;;;;;4983517;28;19938;-79
2022/09/29 09:51:50;;;;;;;;;;;;;;;;;;4981795;28;19918;-79
2022/09/29 09:54:23;;;;;;;;;;;;;;;;;;4980299;28;20214;-80
2022/09/29 09:56:49;;;;;;;;;;;;;;;;;;4983994;28;19914;-80
2022/09/29 09:59:53;;;;;;;;;;;;;;;;;;4983381;28;19956;-79
2022/09/29 10:02:19;;;;;;;;;;;;;;;;;;4927953;29;20207;-79
2022/09/29 10:04:47;;;;;;;;;;;;;;;;;;4923490;29;19918;-79
2022/09/29 10:07:13;;;;;;;;;;;;;;;;;;4953143;28;19933;-79
2022/09/29 10:09:39;;;;;;;;;;;;;;;;;;4983348;28;19929;-79
2022/09/29 10:12:04;;;;;;;;;;;;;;;;;;4983518;28;19961;-79
2022/09/29 10:14:31;;;;;;;;;;;;;;;;;;4983287;28;19910;-80
2022/09/29 10:16:59;;;;;;;;;;;;;;;;;;4983471;28;19916;-79
2022/09/29 10:20:04;;;;;;;;;;;;;;;;;;4983017;28;19910;-79
2022/09/29 10:22:30;;;;;;;;;;;;;;;;;;4924709;29;19918;-79
2022/09/29 10:25:13;;;;;;;;;;;;;;;;;;4923264;29;19914;-79
2022/09/29 10:27:43;;;;;;;;;;;;;;;;;;4954989;28;20000;-79
2022/09/29 10:30:18;;;;;;;;;;;;;;;;;;4982094;28;19910;-79
2022/09/29 10:32:44;;;;;;;;;;;;;;;;;;4983062;28;19910;-80
2022/09/29 10:35:22;;;;;;;;;;;;;;;;;;4981385;28;19910;-79
2022/09/29 10:38:11;;;;;;;;;;;;;;;;;;4983143;28;20110;-79
2022/09/29 10:40:40;;;;;;;;;;;;;;;;;;4977172;28;19921;-81
2022/09/29 10:43:22;;;;;;;;;;;;;;;;;;4983379;28;19909;-81
2022/09/29 10:45:48;;;;;;;;;;;;;;;;;;4978037;28;19917;-80
2022/09/29 10:48:14;;;;;;;;;;;;;;;;;;4982658;28;19910;-81
2022/09/29 10:50:52;;;;;;;;;;;;;;;;;;4982609;28;19913;-82
2022/09/29 10:53:17;;;;;;;;;;;;;;;;;;4982644;28;19977;-81
2022/09/29 10:55:47;;;;;;;;;;;;;;;;;;4982488;28;19910;-82
2022/09/29 10:58:22;;;;;;;;;;;;;;;;;;4981317;28;19945;-81
2022/09/29 11:00:47;;;;;;;;;;;;;;;;;;4982632;28;19917;-81
2022/09/29 11:03:21;;;;;;;;;;;;;;;;;;4982532;28;19990;-82
2022/09/29 11:06:06;;;;;;;;;;;;;;;;;;4982277;28;19949;-81
2022/09/29 11:08:32;;;;;;;;;;;;;;;;;;4981789;28;19925;-80
2022/09/29 11:11:06;;;;;;;;;;;;;;;;;;4982316;28;19910;-81
2022/09/29 11:13:35;;;;;;;;;;;;;;;;;;4980637;28;19918;-81
2022/09/29 11:16:04;;;;;;;;;;;;;;;;;;4982554;28;20202;-81
2022/09/29 11:18:37;;;;;;;;;;;;;;;;;;4975154;28;20213;-81
2022/09/29 11:21:32;;;;;;;;;;;;;;;;;;4976302;28;19914;-81
2022/09/29 11:24:12;;;;;;;;;;;;;;;;;;4930670;28;19923;-81
2022/09/29 11:26:41;;;;;;;;;;;;;;;;;;4982694;28;19910;-80
2022/09/29 11:29:36;;;;;;;;;;;;;;;;;;4981635;28;19910;-81
2022/09/29 11:32:04;;;;;;;;;;;;;;;;;;4964913;28;19960;-82
2022/09/29 11:34:53;;;;;;;;;;;;;;;;;;4980594;28;19977;-84
2022/09/29 11:37:37;;;;;;;;;;;;;;;;;;4972151;28;19914;-84
2022/09/29 11:40:02;;;;;;;;;;;;;;;;;;4976532;28;19918;-84
2022/09/29 11:42:39;;;;;;;;;;;;;;;;;;4981928;28;19957;-81
2022/09/29 11:45:06;;;;;;;;;;;;;;;;;;4981966;28;20025;-81
2022/09/29 11:47:32;;;;;;;;;;;;;;;;;;4981948;28;19909;-85
2022/09/29 11:50:01;;;;;;;;;;;;;;;;;;4981486;28;19906;-85
2022/09/29 11:52:34;;;;;;;;;;;;;;;;;;4982260;28;19937;-84
2022/09/29 11:55:18;;;;;;;;;;;;;;;;;;4981756;28;19984;-81
2022/09/29 11:57:43;;;;;;;;;;;;;;;;;;4982130;28;19914;-83
2022/09/29 12:00:11;;;;;;;;;;;;;;;;;;4981595;28;19910;-85
2022/09/29 12:02:36;;;;;;;;;;;;;;;;;;4981366;28;19926;-83
2022/09/29 12:05:06;;;;;;;;;;;;;;;;;;4980617;28;20224;-83
2022/09/29 12:08:00;;;;;;;;;;;;;;;;;;4981911;28;19992;-82
2022/09/29 12:10:26;;;;;;;;;;;;;;;;;;4970213;28;19917;-82
2022/09/29 12:12:58;;;;;;;;;;;;;;;;;;4981769;28;19968;-82
2022/09/29 12:15:26;;;;;;;;;;;;;;;;;;4981239;28;19925;-83
2022/09/29 12:17:54;;;;;;;;;;;;;;;;;;4981501;28;19925;-84
2022/09/29 12:20:23;;;;;;;;;;;;;;;;;;4980965;28;19961;-83
2022/09/29 12:22:49;;;;;;;;;;;;;;;;;;4981730;28;19941;-82
2022/09/29 12:25:17;;;;;;;;;;;;;;;;;;4976722;28;20102;-84
2022/09/29 12:27:44;;;;;;;;;;;;;;;;;;4981319;28;20149;-83
2022/09/29 12:30:15;;;;;;;;;;;;;;;;;;4981579;28;19972;-83
2022/09/29 12:32:43;;;;;;;;;;;;;;;;;;4980847;28;20241;-81
2022/09/29 12:35:14;;;;;;;;;;;;;;;;;;4981457;28;19913;-81
2022/09/29 12:37:48;;;;;;;;;;;;;;;;;;4978976;28;19968;-81
2022/09/29 12:40:20;;;;;;;;;;;;;;;;;;4977059;28;19981;-80
2022/09/29 12:42:45;;;;;;;;;;;;;;;;;;4977875;28;19934;-81
2022/09/29 12:45:13;;;;;;;;;;;;;;;;;;4974615;28;19918;-81
2022/09/29 12:47:39;;;;;;;;;;;;;;;;;;4981022;28;19925;-81
2022/09/29 12:50:08;;;;;;;;;;;;;;;;;;4980265;28;19993;-82
2022/09/29 12:52:45;;;;;;;;;;;;;;;;;;4984431;28;19979;-83
2022/09/29 12:55:16;;;;;;;;;;;;;;;;;;4981303;28;19914;-86
2022/09/29 12:57:45;;;;;;;;;;;;;;;;;;4984840;28;19972;-86
2022/09/29 13:00:14;;;;;;;;;;;;;;;;;;4985024;28;20000;-86
2022/09/29 13:02:55;;;;;;;;;;;;;;;;;;4985906;28;19956;-85
2022/09/29 13:05:26;;;;;;;;;;;;;;;;;;4982685;28;19932;-85
2022/09/29 13:08:06;;;;;;;;;;;;;;;;;;4984927;28;20229;-87
2022/09/29 13:10:32;;;;;;;;;;;;;;;;;;4984709;28;19921;-87
2022/09/29 13:13:03;;;;;;;;;;;;;;;;;;4985085;28;20248;-88
2022/09/29 13:15:44;;;;;;;;;;;;;;;;;;4985073;28;20170;-89
2022/09/29 13:18:21;;;;;;;;;;;;;;;;;;4983519;28;19910;-80
2022/09/29 13:20:52;;;;;;;;;;;;;;;;;;4984354;28;20217;-80
2022/09/29 13:23:27;;;;;;;;;;;;;;;;;;4984807;28;19910;-81
2022/09/29 13:26:08;;;;;;;;;;;;;;;;;;4984037;28;20187;-78
2022/09/29 13:28:45;;;;;;;;;;;;;;;;;;4984201;28;19913;-79
2022/09/29 13:31:16;;;;;;;;;;;;;;;;;;4981949;28;19916;-80
2022/09/29 13:33:50;;;;;;;;;;;;;;;;;;4984246;28;19914;-80
2022/09/29 13:36:24;;;;;;;;;;;;;;;;;;4982748;28;19910;-77
2022/09/29 13:38:54;;;;;;;;;;;;;;;;;;4984612;28;20194;-78
2022/09/29 13:41:22;;;;;;;;;;;;;;;;;;4984503;28;20150;-78
2022/09/29 13:43:49;;;;;;;;;;;;;;;;;;4984044;28;20126;-78
2022/09/29 13:46:27;;;;;;;;;;;;;;;;;;4984509;28;19910;-80
2022/09/29 13:49:00;;;;;;;;;;;;;;;;;;4978897;28;20089;-78
2022/09/29 13:51:38;;;;;;;;;;;;;;;;;;4982822;28;19914;-78
2022/09/29 13:54:13;;;;;;;;;;;;;;;;;;4983839;28;19918;-79
2022/09/29 13:56:39;;;;;;;;;;;;;;;;;;4982789;28;19945;-78
2022/09/29 13:59:12;;;;;;;;;;;;;;;;;;4983842;28;19917;-77
2022/09/29 14:01:38;;;;;;;;;;;;;;;;;;4983538;28;19914;-77
2022/09/29 14:04:22;;;;;;;;;;;;;;;;;;4983491;28;19917;-81
2022/09/29 14:06:47;;;;;;;;;;;;;;;;;;4983711;28;19977;-79
2022/09/29 14:09:18;;;;;;;;;;;;;;;;;;4983435;28;19913;-78
2022/09/29 14:11:47;;;;;;;;;;;;;;;;;;4983740;28;19937;-77
2022/09/29 14:14:12;;;;;;;;;;;;;;;;;;4983601;28;20222;-78
2022/09/29 14:16:41;;;;;;;;;;;;;;;;;;4982646;28;19910;-79
2022/09/29 14:19:26;;;;;;;;;;;;;;;;;;4983245;28;19909;-78
2022/09/29 14:21:55;;;;;;;;;;;;;;;;;;4979153;28;19910;-77
2022/09/29 14:24:36;;;;;;;;;;;;;;;;;;4979078;28;19949;-77
2022/09/29 14:27:18;;;;;;;;;;;;;;;;;;4983325;28;20227;-78
2022/09/29 14:29:48;;;;;;;;;;;;;;;;;;4983525;28;19917;-78
2022/09/29 14:32:17;;;;;;;;;;;;;;;;;;4983516;28;19910;-78
2022/09/29 14:34:42;;;;;;;;;;;;;;;;;;4983157;28;19917;-78
2022/09/29 14:37:13;;;;;;;;;;;;;;;;;;4983554;28;19910;-80
2022/09/29 14:39:38;;;;;;;;;;;;;;;;;;4983112;28;19917;-79
2022/09/29 14:42:10;;;;;;;;;;;;;;;;;;4981976;28;19910;-78
2022/09/29 14:52:54;;;;;;;;;;;;;;;;;;4976889;28;20216;-79
2022/09/29 14:55:43;;;;;;;;;;;;;;;;;;4982227;28;19914;-79
2022/09/29 14:58:30;;;;;;;;;;;;;;;;;;4977303;28;19933;-78
2022/09/29 15:00:55;;;;;;;;;;;;;;;;;;4980263;28;20213;-79
2022/09/29 15:03:29;;;;;;;;;;;;;;;;;;4974881;28;19981;-79
2022/09/29 15:06:03;;;;;;;;;;;;;;;;;;4982094;28;19909;-78
2022/09/29 15:08:30;;;;;;;;;;;;;;;;;;4974862;28;19930;-78
2022/09/29 15:10:56;;;;;;;;;;;;;;;;;;4980735;28;20083;-78
2022/09/29 15:13:22;;;;;;;;;;;;;;;;;;4973573;28;20200;-79
2022/09/29 15:15:48;;;;;;;;;;;;;;;;;;4977053;28;19945;-78
2022/09/29 15:18:40;;;;;;;;;;;;;;;;;;4982479;28;19910;-79
2022/09/29 15:21:09;;;;;;;;;;;;;;;;;;4993064;28;19910;-80
2022/09/29 15:23:35;;;;;;;;;;;;;;;;;;4982217;28;19922;-79
2022/09/29 15:26:00;;;;;;;;;;;;;;;;;;4980650;28;19918;-79
2022/09/29 15:28:30;;;;;;;;;;;;;;;;;;4982479;28;20049;-79
2022/09/29 15:30:59;;;;;;;;;;;;;;;;;;4982022;28;19910;-79
2022/09/29 15:33:26;;;;;;;;;;;;;;;;;;4981974;28;19918;-79
2022/09/29 15:36:00;;;;;;;;;;;;;;;;;;4981707;28;19933;-80
2022/09/29 15:38:31;;;;;;;;;;;;;;;;;;4981086;28;20083;-80
2022/09/29 15:41:01;;;;;;;;;;;;;;;;;;4980728;28;19957;-79
2022/09/29 15:43:38;;;;;;;;;;;;;;;;;;4981922;28;19910;-79
2022/09/29 15:46:12;;;;;;;;;;;;;;;;;;4977324;28;20140;-80
2022/09/29 15:48:37;;;;;;;;;;;;;;;;;;4981971;28;20037;-80
2022/09/29 15:51:03;;;;;;;;;;;;;;;;;;4981467;28;19910;-80
2022/09/29 15:53:29;;;;;;;;;;;;;;;;;;4981571;28;19910;-80
2022/09/29 15:55:55;;;;;;;;;;;;;;;;;;4978193;28;19957;-80
2022/09/29 15:58:26;;;;;;;;;;;;;;;;;;4980518;28;19910;-80
2022/09/29 16:01:05;;;;;;;;;;;;;;;;;;4981720;28;19910;-80
2022/09/29 16:03:50;;;;;;;;;;;;;;;;;;4975898;28;19926;-79
2022/09/29 16:06:18;;;;;;;;;;;;;;;;;;4978118;28;20178;-80
2022/09/29 16:08:49;;;;;;;;;;;;;;;;;;4981303;28;19906;-80
2022/09/29 16:11:19;;;;;;;;;;;;;;;;;;4981962;28;20199;-80
2022/09/29 16:13:47;;;;;;;;;;;;;;;;;;4980449;28;19921;-80
2022/09/29 16:16:13;;;;;;;;;;;;;;;;;;4981717;28;20077;-80
2022/09/29 16:18:41;;;;;;;;;;;;;;;;;;4981660;28;19984;-80
2022/09/29 16:21:08;;;;;;;;;;;;;;;;;;4981462;28;19937;-80
2022/09/29 16:23:35;;;;;;;;;;;;;;;;;;4981564;28;20091;-80
2022/09/29 16:26:06;;;;;;;;;;;;;;;;;;4984931;28;20217;-80
2022/09/29 16:28:32;;;;;;;;;;;;;;;;;;4985369;28;19976;-80
2022/09/29 16:31:06;;;;;;;;;;;;;;;;;;4985324;28;19933;-79
2022/09/29 16:33:35;;;;;;;;;;;;;;;;;;4984565;28;19918;-80
2022/09/29 16:36:06;;;;;;;;;;;;;;;;;;4985078;28;20181;-80
2022/09/29 16:38:51;;;;;;;;;;;;;;;;;;4985144;28;19910;-79
2022/09/29 16:41:19;;;;;;;;;;;;;;;;;;4983039;28;20057;-80
2022/09/29 16:43:45;;;;;;;;;;;;;;;;;;4984171;28;20083;-81
2022/09/29 16:46:18;;;;;;;;;;;;;;;;;;4984414;28;20082;-80
2022/09/29 16:48:44;;;;;;;;;;;;;;;;;;4980789;28;19918;-79
2022/09/29 16:51:17;;;;;;;;;;;;;;;;;;4983464;28;19916;-79
2022/09/29 16:53:42;;;;;;;;;;;;;;;;;;4984908;28;19989;-80
2022/09/29 16:56:08;;;;;;;;;;;;;;;;;;4984758;28;19922;-79
2022/09/29 16:58:34;;;;;;;;;;;;;;;;;;4984958;28;19909;-79
2022/09/29 17:01:01;;;;;;;;;;;;;;;;;;4980305;28;20107;-79
2022/09/29 17:03:27;;;;;;;;;;;;;;;;;;4984839;28;19928;-78
2022/09/29 17:05:53;;;;;;;;;;;;;;;;;;4983395;28;20090;-79
2022/09/29 17:08:20;;;;;;;;;;;;;;;;;;4984817;28;19948;-79
2022/09/29 17:10:45;;;;;;;;;;;;;;;;;;4984148;28;20201;-79